createdAt,value
2019-05-11T00:01:09.122Z,12.63
2019-05-11T00:04:10.463Z,12.94
2019-05-11T00:07:11.849Z,13.38
2019-05-11T00:10:13.384Z,13.38
2019-05-11T00:13:15.588Z,13.31
2019-05-11T00:16:19.027Z,13.25
2019-05-11T00:19:20.108Z,13.25
2019-05-11T00:22:21.484Z,13.31
2019-05-11T00:25:23.934Z,13.31
2019-05-11T00:28:25.341Z,13.56
2019-05-11T00:31:26.863Z,13.75
2019-05-11T00:34:28.261Z,13.88
2019-05-11T00:37:29.687Z,13.88
2019-05-11T00:40:31.113Z,13.75
2019-05-11T00:43:32.541Z,13.69
2019-05-11T00:46:33.976Z,14.00
2019-05-11T00:49:35.354Z,13.69
2019-05-11T00:52:36.751Z,13.44
2019-05-11T00:55:38.316Z,13.25
2019-05-11T00:58:39.734Z,13.06
2019-05-11T01:01:41.158Z,13.06
2019-05-11T01:04:42.573Z,13.00
2019-05-11T01:07:44.042Z,13.00
2019-05-11T01:10:45.547Z,12.88
2019-05-11T01:13:46.999Z,12.94
2019-05-11T01:16:48.408Z,12.88
2019-05-11T01:19:49.792Z,12.94
2019-05-11T01:22:51.264Z,12.94
2019-05-11T01:25:52.877Z,12.81
2019-05-11T01:28:54.328Z,12.81
2019-05-11T01:31:55.779Z,13.00
2019-05-11T01:34:57.148Z,13.06
2019-05-11T01:37:58.604Z,13.31
2019-05-11T01:41:00.045Z,13.31
2019-05-11T01:44:01.435Z,13.69
2019-05-11T01:47:02.903Z,13.69
2019-05-11T01:50:05.329Z,13.88
2019-05-11T01:53:06.737Z,13.81
2019-05-11T01:56:08.172Z,13.69
2019-05-11T01:59:09.599Z,13.69
2019-05-11T02:02:11.034Z,13.75
2019-05-11T02:05:31.397Z,13.81
2019-05-11T02:08:32.802Z,13.81
2019-05-11T02:11:34.208Z,13.88
2019-05-11T02:14:35.607Z,13.88
2019-05-11T02:17:37.040Z,13.81
2019-05-11T02:20:38.490Z,13.88
2019-05-11T02:23:39.882Z,13.81
2019-05-11T02:26:41.327Z,13.81
2019-05-11T02:29:42.882Z,13.88
2019-05-11T02:32:44.325Z,13.88
2019-05-11T02:35:45.803Z,13.88
2019-05-11T02:38:47.229Z,13.81
2019-05-11T02:41:48.706Z,13.75
2019-05-11T02:44:50.118Z,13.75
2019-05-11T02:47:51.553Z,13.62
2019-05-11T02:50:53.924Z,13.75
2019-05-11T02:53:55.876Z,13.81
2019-05-11T02:56:57.320Z,13.94
2019-05-11T02:59:58.798Z,14.00
2019-05-11T03:03:00.209Z,13.94
2019-05-11T03:06:01.630Z,13.94
2019-05-11T03:09:03.465Z,14.00
2019-05-11T03:12:04.898Z,14.00
2019-05-11T03:15:06.634Z,14.00
2019-05-11T03:18:08.061Z,14.00
2019-05-11T03:21:09.464Z,14.00
2019-05-11T03:24:10.885Z,14.00
2019-05-11T03:27:12.333Z,14.00
2019-05-11T03:30:13.814Z,13.94
2019-05-11T03:33:15.250Z,13.94
2019-05-11T03:36:16.678Z,14.00
2019-05-11T03:39:18.100Z,14.00
2019-05-11T03:42:19.543Z,14.00
2019-05-11T03:45:20.925Z,14.00
2019-05-11T03:48:23.398Z,13.94
2019-05-11T03:51:24.812Z,13.88
2019-05-11T03:54:27.280Z,13.88
2019-05-11T03:57:28.702Z,13.81
2019-05-11T04:00:30.118Z,13.69
2019-05-11T04:03:31.524Z,13.62
2019-05-11T04:06:32.906Z,13.62
2019-05-11T04:09:34.359Z,13.56
2019-05-11T04:12:35.990Z,13.56
2019-05-11T04:15:37.539Z,13.56
2019-05-11T04:18:39.050Z,13.62
2019-05-11T04:21:40.438Z,13.62
2019-05-11T04:24:41.989Z,13.62
2019-05-11T04:27:43.354Z,13.56
2019-05-11T04:30:44.771Z,13.62
2019-05-11T04:33:46.170Z,13.62
2019-05-11T04:36:47.607Z,13.69
2019-05-11T04:39:49.011Z,13.75
2019-05-11T04:42:56.016Z,13.81
2019-05-11T04:45:53.682Z,13.81
2019-05-11T04:48:55.131Z,13.81
2019-05-11T04:51:56.550Z,13.81
2019-05-11T04:54:59.058Z,13.81
2019-05-11T04:58:00.434Z,13.75
2019-05-11T05:01:01.890Z,13.75
2019-05-11T05:04:13.408Z,13.75
2019-05-11T05:07:10.725Z,13.69
2019-05-11T05:10:14.010Z,13.69
2019-05-11T05:13:14.106Z,13.69
2019-05-11T05:16:15.521Z,13.69
2019-05-11T05:19:16.927Z,13.62
2019-05-11T05:22:18.372Z,13.69
2019-05-11T05:25:19.754Z,13.69
2019-05-11T05:28:21.165Z,13.75
2019-05-11T05:31:22.611Z,13.75
2019-05-11T05:34:24.005Z,13.81
2019-05-11T05:37:25.434Z,13.88
2019-05-11T05:40:26.777Z,13.88
2019-05-11T05:43:28.716Z,13.88
2019-05-11T05:46:30.097Z,13.81
2019-05-11T05:49:31.541Z,13.81
2019-05-11T05:52:33.008Z,13.81
2019-05-11T05:55:34.437Z,13.81
2019-05-11T05:58:35.893Z,13.75
2019-05-11T06:01:37.271Z,13.81
2019-05-11T06:04:38.660Z,13.81
2019-05-11T06:07:40.030Z,13.81
2019-05-11T06:10:41.411Z,13.69
2019-05-11T06:13:45.571Z,13.75
2019-05-11T06:16:45.904Z,13.88
2019-05-11T06:19:47.348Z,14.06
2019-05-11T06:22:48.790Z,14.13
2019-05-11T06:25:50.193Z,14.13
2019-05-11T06:28:51.650Z,14.13
2019-05-11T06:31:53.034Z,14.19
2019-05-11T06:34:54.405Z,14.31
2019-05-11T06:37:55.880Z,14.50
2019-05-11T06:40:57.338Z,14.56
2019-05-11T06:44:01.951Z,14.63
2019-05-11T06:47:01.883Z,14.63
2019-05-11T06:50:03.558Z,14.69
2019-05-11T06:53:06.045Z,14.75
2019-05-11T06:56:07.441Z,14.87
2019-05-11T06:59:08.864Z,14.94
2019-05-11T07:02:10.245Z,14.94
2019-05-11T07:05:11.763Z,14.94
2019-05-11T07:08:13.145Z,15.00
2019-05-11T07:11:14.632Z,15.06
2019-05-11T07:14:21.003Z,15.19
2019-05-11T07:17:20.224Z,15.31
2019-05-11T07:20:21.649Z,15.44
2019-05-11T07:23:23.023Z,15.69
2019-05-11T07:26:24.432Z,15.75
2019-05-11T07:29:25.909Z,15.69
2019-05-11T07:32:29.355Z,15.44
2019-05-11T07:35:30.441Z,15.19
2019-05-11T07:38:31.850Z,14.94
2019-05-11T07:41:33.307Z,14.31
2019-05-11T07:44:38.485Z,13.62
2019-05-11T07:47:38.146Z,13.38
2019-05-11T07:50:39.708Z,13.38
2019-05-11T07:53:41.080Z,13.62
2019-05-11T07:56:42.475Z,13.81
2019-05-11T07:59:44.040Z,13.69
2019-05-11T08:02:47.847Z,13.75
2019-05-11T08:05:48.529Z,14.13
2019-05-11T08:08:49.948Z,14.44
2019-05-11T08:11:51.324Z,14.63
2019-05-11T08:15:02.642Z,15.19
2019-05-11T08:17:57.882Z,15.69
2019-05-11T08:20:59.070Z,15.81
2019-05-11T08:24:00.521Z,15.94
2019-05-11T08:27:03.010Z,15.94
2019-05-11T08:30:04.743Z,16.25
2019-05-11T08:33:08.505Z,16.56
2019-05-11T08:36:09.274Z,16.62
2019-05-11T08:39:10.725Z,16.56
2019-05-11T08:42:12.141Z,16.56
2019-05-11T08:45:20.409Z,16.81
2019-05-11T08:48:18.684Z,16.81
2019-05-11T08:51:19.906Z,16.94
2019-05-11T08:54:21.361Z,17.37
2019-05-11T08:57:22.788Z,17.87
2019-05-11T09:00:24.211Z,18.00
2019-05-11T09:03:25.589Z,17.75
2019-05-11T09:06:28.414Z,17.62
2019-05-11T09:09:30.122Z,17.19
2019-05-11T09:12:31.504Z,17.31
2019-05-11T09:15:37.127Z,17.00
2019-05-11T09:18:38.407Z,16.75
2019-05-11T09:21:39.202Z,16.69
2019-05-11T09:24:40.651Z,16.69
2019-05-11T09:27:43.503Z,16.69
2019-05-11T09:30:45.180Z,16.75
2019-05-11T09:33:48.023Z,16.50
2019-05-11T09:36:49.693Z,16.50
2019-05-11T09:39:51.144Z,16.56
2019-05-11T09:42:52.542Z,16.62
2019-05-11T09:45:53.954Z,16.62
2019-05-11T09:48:55.459Z,16.50
2019-05-11T09:51:58.946Z,16.44
2019-05-11T09:55:00.061Z,16.50
2019-05-11T09:58:01.431Z,16.56
2019-05-11T10:01:02.834Z,16.69
2019-05-11T10:04:05.308Z,16.94
2019-05-11T10:07:08.841Z,17.12
2019-05-11T10:10:10.333Z,17.19
2019-05-11T10:13:11.792Z,17.12
2019-05-11T10:16:13.228Z,17.31
2019-05-11T10:19:14.639Z,17.37
2019-05-11T10:22:18.409Z,17.37
2019-05-11T10:25:19.248Z,17.25
2019-05-11T10:28:20.757Z,17.19
2019-05-11T10:31:22.146Z,17.50
2019-05-11T10:34:23.562Z,17.19
2019-05-11T10:37:25.019Z,17.06
2019-05-11T10:40:28.188Z,17.81
2019-05-11T10:43:29.622Z,18.75
2019-05-11T10:46:31.023Z,18.31
2019-05-11T10:49:32.439Z,18.12
2019-05-11T10:52:33.847Z,17.69
2019-05-11T10:55:38.707Z,18.37
2019-05-11T10:58:41.217Z,18.31
2019-05-11T11:01:42.638Z,18.75
2019-05-11T11:04:44.061Z,18.62
2019-05-11T11:07:45.491Z,18.37
2019-05-11T11:10:48.387Z,18.31
2019-05-11T11:13:50.169Z,18.19
2019-05-11T11:16:51.536Z,17.81
2019-05-11T11:19:52.945Z,17.94
2019-05-11T11:22:54.357Z,17.87
2019-05-11T11:25:55.752Z,17.75
2019-05-11T11:28:58.055Z,17.62
2019-05-11T11:32:04.213Z,17.69
2019-05-11T11:35:08.238Z,17.56
2019-05-11T11:38:09.231Z,17.62
2019-05-11T11:41:10.608Z,17.56
2019-05-11T11:44:12.023Z,17.44
2019-05-11T11:47:13.408Z,17.12
2019-05-11T11:50:14.918Z,16.75
2019-05-11T11:53:18.623Z,16.75
2019-05-11T11:56:19.440Z,16.31
2019-05-11T11:59:20.849Z,16.37
2019-05-11T12:02:22.218Z,16.56
2019-05-11T12:05:23.749Z,16.87
2019-05-11T12:08:25.121Z,16.75
2019-05-11T12:11:27.929Z,17.00
2019-05-11T12:14:29.523Z,17.75
2019-05-11T12:17:30.934Z,17.87
2019-05-11T12:20:32.334Z,18.00
2019-05-11T12:23:33.680Z,18.06
2019-05-11T12:26:35.080Z,18.12
2019-05-11T12:29:38.393Z,17.75
2019-05-11T12:32:48.541Z,17.81
2019-05-11T12:35:49.446Z,18.00
2019-05-11T12:38:50.809Z,18.31
2019-05-11T12:41:52.213Z,18.37
2019-05-11T12:44:53.611Z,18.37
2019-05-11T12:47:55.000Z,18.37
2019-05-11T12:50:58.641Z,18.81
2019-05-11T12:53:59.579Z,18.50
2019-05-11T12:57:01.000Z,18.75
2019-05-11T13:00:02.425Z,18.69
2019-05-11T13:03:03.878Z,18.37
2019-05-11T13:06:05.278Z,18.12
2019-05-11T13:09:08.100Z,17.56
2019-05-11T13:12:09.553Z,17.44
2019-05-11T13:15:11.215Z,17.25
2019-05-11T13:18:12.630Z,17.31
2019-05-11T13:21:14.197Z,17.37
2019-05-11T13:24:15.634Z,17.31
2019-05-11T13:27:17.866Z,17.19
2019-05-11T13:30:19.686Z,17.00
2019-05-11T13:33:21.074Z,16.31
2019-05-11T13:36:22.506Z,15.94
2019-05-11T13:39:23.875Z,15.44
2019-05-11T13:42:27.600Z,14.75
2019-05-11T13:45:28.460Z,14.19
2019-05-11T13:48:29.881Z,14.19
2019-05-11T13:51:31.298Z,13.88
2019-05-11T13:54:32.685Z,13.88
2019-05-11T13:57:34.342Z,14.00
2019-05-11T14:00:37.881Z,13.94
2019-05-11T14:03:38.937Z,14.00
2019-05-11T14:06:40.343Z,14.00
2019-05-11T14:09:41.715Z,14.44
2019-05-11T14:12:43.162Z,14.63
2019-05-11T14:15:44.767Z,14.50
2019-05-11T14:18:48.623Z,14.06
2019-05-11T14:21:49.413Z,14.06
2019-05-11T14:24:50.805Z,13.81
2019-05-11T14:27:52.180Z,13.81
2019-05-11T14:30:53.561Z,13.69
2019-05-11T14:33:55.024Z,13.38
2019-05-11T14:36:58.176Z,13.06
2019-05-11T14:39:59.475Z,12.63
2019-05-11T14:43:00.925Z,12.56
2019-05-11T14:46:02.331Z,12.69
2019-05-11T14:49:03.721Z,12.63
2019-05-11T14:52:05.110Z,12.81
2019-05-11T14:55:08.203Z,12.69
2019-05-11T14:58:09.811Z,12.75
2019-05-11T15:01:14.338Z,12.81
2019-05-11T15:04:14.306Z,12.81
2019-05-11T15:07:17.760Z,12.81
2019-05-11T15:10:21.275Z,12.69
2019-05-11T15:13:22.665Z,12.75
2019-05-11T15:16:25.093Z,12.69
2019-05-11T15:19:27.892Z,12.69
2019-05-11T15:22:29.361Z,12.81
2019-05-11T15:25:30.741Z,12.81
2019-05-11T15:28:32.113Z,12.63
2019-05-11T15:31:33.818Z,12.50
2019-05-11T15:34:35.207Z,12.37
2019-05-11T15:37:38.475Z,12.00
2019-05-11T15:40:39.653Z,11.81
2019-05-11T15:43:41.032Z,11.69
2019-05-11T15:46:42.397Z,11.19
2019-05-11T15:49:43.785Z,10.94
2019-05-11T15:52:45.308Z,10.75
2019-05-11T15:55:47.884Z,10.63
2019-05-11T15:58:49.353Z,10.50
2019-05-11T16:01:50.754Z,10.56
2019-05-11T16:04:52.158Z,10.44
2019-05-11T16:07:53.625Z,10.38
2019-05-11T16:10:55.026Z,10.25
2019-05-11T16:13:58.578Z,10.13
2019-05-11T16:16:59.614Z,10.06
2019-05-11T16:20:01.077Z,10.31
2019-05-11T16:23:02.528Z,10.00
2019-05-11T16:26:03.885Z,9.69
2019-05-11T16:29:05.387Z,9.75
2019-05-11T16:32:08.379Z,9.81
2019-05-11T16:35:10.680Z,9.69
2019-05-11T16:38:12.185Z,10.00
2019-05-11T16:41:13.575Z,10.19
2019-05-11T16:44:14.974Z,10.13
2019-05-11T16:47:18.137Z,10.06
2019-05-11T16:50:20.558Z,10.31
2019-05-11T16:53:21.974Z,10.38
2019-05-11T16:56:23.394Z,10.50
2019-05-11T16:59:24.823Z,10.44
2019-05-11T17:02:27.400Z,10.38
2019-05-11T17:05:33.480Z,10.50
2019-05-11T17:08:32.499Z,10.56
2019-05-11T17:11:35.253Z,10.63
2019-05-11T17:14:39.977Z,10.56
2019-05-11T17:17:41.445Z,10.50
2019-05-11T17:20:42.927Z,10.56
2019-05-11T17:23:44.386Z,10.56
2019-05-11T17:26:47.837Z,10.69
2019-05-11T17:29:49.097Z,10.75
2019-05-11T17:32:50.462Z,10.63
2019-05-11T17:35:51.868Z,10.56
2019-05-11T17:38:53.407Z,10.56
2019-05-11T17:41:54.792Z,10.38
2019-05-11T17:44:58.777Z,10.50
2019-05-11T17:47:59.348Z,10.44
2019-05-11T17:51:00.793Z,10.31
2019-05-11T17:54:03.288Z,10.50
2019-05-11T17:57:04.806Z,10.44
2019-05-11T18:00:08.886Z,10.44
2019-05-11T18:03:11.231Z,10.31
2019-05-11T18:06:13.102Z,10.31
2019-05-11T18:09:14.524Z,10.25
2019-05-11T18:12:17.665Z,10.44
2019-05-11T18:15:19.353Z,10.38
2019-05-11T18:18:23.899Z,10.19
2019-05-11T18:21:24.103Z,9.94
2019-05-11T18:24:25.479Z,9.94
2019-05-11T18:27:27.818Z,10.13
2019-05-11T18:30:29.540Z,9.88
2019-05-11T18:33:31.012Z,9.88
2019-05-11T18:36:32.404Z,9.81
2019-05-11T18:39:33.839Z,9.94
2019-05-11T18:42:35.239Z,9.75
2019-05-11T18:45:38.258Z,9.81
2019-05-11T18:48:39.873Z,10.13
2019-05-11T18:51:41.241Z,9.75
2019-05-11T18:54:42.647Z,9.94
2019-05-11T18:57:44.031Z,9.88
2019-05-11T19:00:45.416Z,9.88
2019-05-11T19:03:47.858Z,9.88
2019-05-11T19:06:49.471Z,9.94
2019-05-11T19:09:50.908Z,10.00
2019-05-11T19:12:52.330Z,10.00
2019-05-11T19:15:53.801Z,9.94
2019-05-11T19:18:55.241Z,9.88
2019-05-11T19:21:58.608Z,9.88
2019-05-11T19:24:59.759Z,9.88
2019-05-11T19:28:01.149Z,9.81
2019-05-11T19:31:02.664Z,9.94
2019-05-11T19:34:04.097Z,9.94
2019-05-11T19:37:05.472Z,10.00
2019-05-11T19:40:09.081Z,10.06
2019-05-11T19:43:12.711Z,10.06
2019-05-11T19:46:14.208Z,10.06
2019-05-11T19:49:15.630Z,9.88
2019-05-11T19:52:17.795Z,9.81
2019-05-11T19:55:19.275Z,9.94
2019-05-11T19:58:20.652Z,9.88
2019-05-11T20:01:22.026Z,9.88
2019-05-11T20:04:23.479Z,10.00
2019-05-11T20:07:24.934Z,10.25
2019-05-11T20:10:27.729Z,10.19
2019-05-11T20:13:29.414Z,10.19
2019-05-11T20:16:30.808Z,10.06
2019-05-11T20:19:32.259Z,10.00
2019-05-11T20:22:33.702Z,9.94
2019-05-11T20:25:37.808Z,10.13
2019-05-11T20:28:38.266Z,10.19
2019-05-11T20:31:39.663Z,10.19
2019-05-11T20:34:41.106Z,10.13
2019-05-11T20:37:42.455Z,10.06
2019-05-11T20:40:43.959Z,10.00
2019-05-11T20:43:46.458Z,10.19
2019-05-11T20:46:48.629Z,9.81
2019-05-11T20:49:50.136Z,9.94
2019-05-11T20:52:51.509Z,10.06
2019-05-11T20:55:52.952Z,10.00
2019-05-11T20:58:59.298Z,10.06
2019-05-11T21:02:01.546Z,10.06
2019-05-11T21:05:02.948Z,10.06
2019-05-11T21:08:04.397Z,10.00
2019-05-11T21:11:05.870Z,10.06
2019-05-11T21:14:08.073Z,10.13
2019-05-11T21:17:09.688Z,10.13
2019-05-11T21:20:11.628Z,10.13
2019-05-11T21:23:13.290Z,10.00
2019-05-11T21:26:15.890Z,10.13
2019-05-11T21:29:18.739Z,10.13
2019-05-11T21:32:20.284Z,10.06
2019-05-11T21:35:22.819Z,9.75
2019-05-11T21:38:24.233Z,9.69
2019-05-11T21:41:30.544Z,9.75
2019-05-11T21:44:28.817Z,9.81
2019-05-11T21:47:30.274Z,9.75
2019-05-11T21:50:31.698Z,9.75
2019-05-11T21:53:33.148Z,9.75
2019-05-11T21:56:34.524Z,9.69
2019-05-11T21:59:37.957Z,9.69
2019-05-11T22:02:39.261Z,9.81
2019-05-11T22:05:40.660Z,9.81
2019-05-11T22:08:42.112Z,9.75
2019-05-11T22:11:43.461Z,9.88
2019-05-11T22:14:45.157Z,9.88
2019-05-11T22:17:48.031Z,9.63
2019-05-11T22:20:49.666Z,9.69
2019-05-11T22:23:51.107Z,9.75
2019-05-11T22:26:52.498Z,9.69
2019-05-11T22:29:53.898Z,9.75
2019-05-11T22:32:55.281Z,9.63
2019-05-11T22:35:58.799Z,9.50
2019-05-11T22:38:59.770Z,9.44
2019-05-11T22:42:01.150Z,9.63
2019-05-11T22:45:02.597Z,9.38
2019-05-11T22:48:04.069Z,9.56
2019-05-11T22:51:07.822Z,9.69
2019-05-11T22:54:11.193Z,9.44
2019-05-11T22:57:11.643Z,9.56
2019-05-11T23:00:13.262Z,9.75
2019-05-11T23:03:18.723Z,9.44
2019-05-11T23:06:18.173Z,9.31
2019-05-11T23:09:19.639Z,9.13
2019-05-11T23:12:21.060Z,9.31
2019-05-11T23:15:22.408Z,9.31
2019-05-11T23:18:23.781Z,9.06
2019-05-11T23:21:25.135Z,9.25
2019-05-11T23:24:28.615Z,9.31
2019-05-11T23:27:29.595Z,9.06
2019-05-11T23:30:30.959Z,9.00
2019-05-11T23:33:32.385Z,9.06
2019-05-11T23:36:33.782Z,8.81
2019-05-11T23:39:35.127Z,9.06
2019-05-11T23:42:38.097Z,9.00
2019-05-11T23:45:39.718Z,9.00
2019-05-11T23:48:41.111Z,8.75
2019-05-11T23:51:42.437Z,8.25
2019-05-11T23:54:43.806Z,8.44
2019-05-11T23:57:45.187Z,8.38
